sensor_id;sensor_type;location;lat;lon;timestamp;pressure;altitude;pressure_sealevel;temperature
69545;BMP180;56766;52.260;20.746;2023-08-01T00:01:02;99607.20;;;17.60
69545;BMP180;56766;52.260;20.746;2023-08-01T00:03:29;99606.80;;;17.60
69545;BMP180;56766;52.260;20.746;2023-08-01T00:05:56;99604.00;;;17.60
69545;BMP180;56766;52.260;20.746;2023-08-01T00:08:22;99604.00;;;17.60
69545;BMP180;56766;52.260;20.746;2023-08-01T00:10:49;99604.60;;;17.60
69545;BMP180;56766;52.260;20.746;2023-08-01T00:13:16;99596.00;;;17.60
69545;BMP180;56766;52.260;20.746;2023-08-01T00:15:43;99602.60;;;17.60
69545;BMP180;56766;52.260;20.746;2023-08-01T00:18:10;99603.60;;;17.60
69545;BMP180;56766;52.260;20.746;2023-08-01T00:20:37;99603.00;;;17.60
69545;BMP180;56766;52.260;20.746;2023-08-01T00:23:06;99602.60;;;17.60
69545;BMP180;56766;52.260;20.746;2023-08-01T00:25:33;99600.60;;;17.66
69545;BMP180;56766;52.260;20.746;2023-08-01T00:28:00;99600.00;;;17.70
69545;BMP180;56766;52.260;20.746;2023-08-01T00:30:26;99592.40;;;17.70
69545;BMP180;56766;52.260;20.746;2023-08-01T00:32:53;99591.00;;;17.70
69545;BMP180;56766;52.260;20.746;2023-08-01T00:35:20;99592.00;;;17.70
69545;BMP180;56766;52.260;20.746;2023-08-01T00:37:47;99599.20;;;17.72
69545;BMP180;56766;52.260;20.746;2023-08-01T00:40:14;99592.80;;;17.70
69545;BMP180;56766;52.260;20.746;2023-08-01T00:42:43;99586.20;;;17.70
69545;BMP180;56766;52.260;20.746;2023-08-01T00:45:10;99586.00;;;17.70
69545;BMP180;56766;52.260;20.746;2023-08-01T00:47:38;99582.60;;;17.78
69545;BMP180;56766;52.260;20.746;2023-08-01T00:50:07;99579.20;;;17.80
69545;BMP180;56766;52.260;20.746;2023-08-01T00:52:34;99575.40;;;17.80
69545;BMP180;56766;52.260;20.746;2023-08-01T00:55:01;99571.40;;;17.80
69545;BMP180;56766;52.260;20.746;2023-08-01T00:57:28;99566.20;;;17.80
69545;BMP180;56766;52.260;20.746;2023-08-01T00:59:56;99552.00;;;17.80
69545;BMP180;56766;52.260;20.746;2023-08-01T01:02:23;99552.20;;;17.80
69545;BMP180;56766;52.260;20.746;2023-08-01T01:04:50;99549.80;;;17.80
69545;BMP180;56766;52.260;20.746;2023-08-01T01:07:17;99547.60;;;17.80
69545;BMP180;56766;52.260;20.746;2023-08-01T01:09:44;99546.60;;;17.80
69545;BMP180;56766;52.260;20.746;2023-08-01T01:12:11;99543.00;;;17.80
69545;BMP180;56766;52.260;20.746;2023-08-01T01:14:38;99542.40;;;17.80
69545;BMP180;56766;52.260;20.746;2023-08-01T01:17:04;99540.00;;;17.80
69545;BMP180;56766;52.260;20.746;2023-08-01T01:19:31;99532.00;;;17.80
69545;BMP180;56766;52.260;20.746;2023-08-01T01:21:58;99532.00;;;17.80
69545;BMP180;56766;52.260;20.746;2023-08-01T01:24:27;99530.40;;;17.80
69545;BMP180;56766;52.260;20.746;2023-08-01T01:26:57;99530.20;;;17.80
69545;BMP180;56766;52.260;20.746;2023-08-01T01:29:27;99524.80;;;17.78
69545;BMP180;56766;52.260;20.746;2023-08-01T01:31:56;99519.40;;;17.78
69545;BMP180;56766;52.260;20.746;2023-08-01T01:34:24;99518.80;;;17.72
69545;BMP180;56766;52.260;20.746;2023-08-01T01:36:50;99516.20;;;17.72
69545;BMP180;56766;52.260;20.746;2023-08-01T01:39:17;99513.80;;;17.70
69545;BMP180;56766;52.260;20.746;2023-08-01T01:41:44;99510.60;;;17.70
69545;BMP180;56766;52.260;20.746;2023-08-01T01:44:11;99505.40;;;17.70
69545;BMP180;56766;52.260;20.746;2023-08-01T01:46:37;99497.60;;;17.70
69545;BMP180;56766;52.260;20.746;2023-08-01T01:49:04;99494.20;;;17.70
69545;BMP180;56766;52.260;20.746;2023-08-01T01:51:32;99495.80;;;17.70
69545;BMP180;56766;52.260;20.746;2023-08-01T01:53:58;99491.40;;;17.70
69545;BMP180;56766;52.260;20.746;2023-08-01T01:56:25;99490.00;;;17.70
69545;BMP180;56766;52.260;20.746;2023-08-01T01:58:52;99485.20;;;17.70
69545;BMP180;56766;52.260;20.746;2023-08-01T02:01:18;99486.80;;;17.68
69545;BMP180;56766;52.260;20.746;2023-08-01T02:03:45;99482.80;;;17.60
69545;BMP180;56766;52.260;20.746;2023-08-01T02:06:11;99481.20;;;17.60
69545;BMP180;56766;52.260;20.746;2023-08-01T02:08:40;99471.20;;;17.60
69545;BMP180;56766;52.260;20.746;2023-08-01T02:11:07;99470.00;;;17.50
69545;BMP180;56766;52.260;20.746;2023-08-01T02:13:33;99461.00;;;17.50
69545;BMP180;56766;52.260;20.746;2023-08-01T02:16:00;99455.80;;;17.50
69545;BMP180;56766;52.260;20.746;2023-08-01T02:18:27;99449.00;;;17.46
69545;BMP180;56766;52.260;20.746;2023-08-01T02:20:54;99442.60;;;17.40
69545;BMP180;56766;52.260;20.746;2023-08-01T02:23:20;99441.20;;;17.40
69545;BMP180;56766;52.260;20.746;2023-08-01T02:25:47;99437.60;;;17.32
69545;BMP180;56766;52.260;20.746;2023-08-01T02:28:13;99435.40;;;17.30
69545;BMP180;56766;52.260;20.746;2023-08-01T02:30:40;99430.80;;;17.30
69545;BMP180;56766;52.260;20.746;2023-08-01T02:33:07;99430.00;;;17.30
69545;BMP180;56766;52.260;20.746;2023-08-01T02:35:33;99424.00;;;17.28
69545;BMP180;56766;52.260;20.746;2023-08-01T02:38:00;99419.20;;;17.22
69545;BMP180;56766;52.260;20.746;2023-08-01T02:40:29;99415.80;;;17.20
69545;BMP180;56766;52.260;20.746;2023-08-01T02:42:56;99411.80;;;17.22
69545;BMP180;56766;52.260;20.746;2023-08-01T02:45:22;99414.60;;;17.30
69545;BMP180;56766;52.260;20.746;2023-08-01T02:47:49;99410.20;;;17.30
69545;BMP180;56766;52.260;20.746;2023-08-01T02:50:16;99408.00;;;17.30
69545;BMP180;56766;52.260;20.746;2023-08-01T02:52:42;99408.20;;;17.30
69545;BMP180;56766;52.260;20.746;2023-08-01T02:55:09;99403.60;;;17.38
69545;BMP180;56766;52.260;20.746;2023-08-01T02:57:36;99402.40;;;17.40
69545;BMP180;56766;52.260;20.746;2023-08-01T03:00:03;99401.60;;;17.40
69545;BMP180;56766;52.260;20.746;2023-08-01T03:02:32;99395.60;;;17.50
69545;BMP180;56766;52.260;20.746;2023-08-01T03:04:59;99395.40;;;17.50
69545;BMP180;56766;52.260;20.746;2023-08-01T03:07:26;99388.20;;;17.50
69545;BMP180;56766;52.260;20.746;2023-08-01T03:09:55;99387.80;;;17.56
69545;BMP180;56766;52.260;20.746;2023-08-01T03:12:22;99382.40;;;17.60
69545;BMP180;56766;52.260;20.746;2023-08-01T03:14:49;99379.40;;;17.60
69545;BMP180;56766;52.260;20.746;2023-08-01T03:17:16;99371.60;;;17.60
69545;BMP180;56766;52.260;20.746;2023-08-01T03:19:43;99377.40;;;17.70
69545;BMP180;56766;52.260;20.746;2023-08-01T03:22:10;99374.20;;;17.70
69545;BMP180;56766;52.260;20.746;2023-08-01T03:24:37;99370.00;;;17.70
69545;BMP180;56766;52.260;20.746;2023-08-01T03:27:04;99370.00;;;17.78
69545;BMP180;56766;52.260;20.746;2023-08-01T03:29:31;99365.80;;;17.80
69545;BMP180;56766;52.260;20.746;2023-08-01T03:31:57;99359.40;;;17.80
69545;BMP180;56766;52.260;20.746;2023-08-01T03:34:24;99361.60;;;17.90
69545;BMP180;56766;52.260;20.746;2023-08-01T03:36:53;99349.60;;;17.90
69545;BMP180;56766;52.260;20.746;2023-08-01T03:39:19;99350.80;;;18.00
69545;BMP180;56766;52.260;20.746;2023-08-01T03:41:46;99347.00;;;18.00
69545;BMP180;56766;52.260;20.746;2023-08-01T03:44:13;99343.60;;;18.10
69545;BMP180;56766;52.260;20.746;2023-08-01T03:46:41;99344.00;;;18.10
69545;BMP180;56766;52.260;20.746;2023-08-01T03:49:08;99341.80;;;18.20
69545;BMP180;56766;52.260;20.746;2023-08-01T03:51:35;99342.00;;;18.20
69545;BMP180;56766;52.260;20.746;2023-08-01T03:54:02;99339.40;;;18.30
69545;BMP180;56766;52.260;20.746;2023-08-01T03:56:29;99337.00;;;18.30
69545;BMP180;56766;52.260;20.746;2023-08-01T03:58:55;99338.60;;;18.38
69545;BMP180;56766;52.260;20.746;2023-08-01T04:01:22;99341.20;;;18.40
69545;BMP180;56766;52.260;20.746;2023-08-01T04:03:49;99337.80;;;18.40
69545;BMP180;56766;52.260;20.746;2023-08-01T04:06:15;99338.80;;;18.44
69545;BMP180;56766;52.260;20.746;2023-08-01T04:08:42;99341.40;;;18.50
69545;BMP180;56766;52.260;20.746;2023-08-01T04:11:09;99336.60;;;18.60
69545;BMP180;56766;52.260;20.746;2023-08-01T04:13:38;99342.40;;;18.76
69545;BMP180;56766;52.260;20.746;2023-08-01T04:16:04;99340.20;;;18.90
69545;BMP180;56766;52.260;20.746;2023-08-01T04:18:31;99334.00;;;18.96
69545;BMP180;56766;52.260;20.746;2023-08-01T04:20:58;99332.40;;;19.00
69545;BMP180;56766;52.260;20.746;2023-08-01T04:23:24;99328.60;;;19.00
69545;BMP180;56766;52.260;20.746;2023-08-01T04:25:51;99330.80;;;19.00
69545;BMP180;56766;52.260;20.746;2023-08-01T04:28:17;99326.60;;;19.06
69545;BMP180;56766;52.260;20.746;2023-08-01T04:30:49;99325.60;;;19.10
69545;BMP180;56766;52.260;20.746;2023-08-01T04:33:16;99322.00;;;19.12
69545;BMP180;56766;52.260;20.746;2023-08-01T04:35:43;99318.80;;;19.20
69545;BMP180;56766;52.260;20.746;2023-08-01T04:38:11;99310.60;;;19.30
69545;BMP180;56766;52.260;20.746;2023-08-01T04:40:37;99301.00;;;19.40
69545;BMP180;56766;52.260;20.746;2023-08-01T04:43:04;99298.00;;;19.58
69545;BMP180;56766;52.260;20.746;2023-08-01T04:45:31;99299.60;;;19.80
69545;BMP180;56766;52.260;20.746;2023-08-01T04:48:00;99295.00;;;20.10
69545;BMP180;56766;52.260;20.746;2023-08-01T04:50:27;99294.80;;;20.22
69545;BMP180;56766;52.260;20.746;2023-08-01T04:52:54;99296.80;;;20.40
69545;BMP180;56766;52.260;20.746;2023-08-01T04:55:21;99291.40;;;20.62
69545;BMP180;56766;52.260;20.746;2023-08-01T04:57:49;99293.20;;;20.90
69545;BMP180;56766;52.260;20.746;2023-08-01T05:00:18;99285.40;;;21.12
69545;BMP180;56766;52.260;20.746;2023-08-01T05:02:47;99282.20;;;21.40
69545;BMP180;56766;52.260;20.746;2023-08-01T05:05:13;99280.40;;;21.58
69545;BMP180;56766;52.260;20.746;2023-08-01T05:07:43;99283.80;;;21.70
69545;BMP180;56766;52.260;20.746;2023-08-01T05:10:10;99284.00;;;21.70
69545;BMP180;56766;52.260;20.746;2023-08-01T05:12:40;99282.40;;;21.70
69545;BMP180;56766;52.260;20.746;2023-08-01T05:15:07;99281.60;;;21.60
69545;BMP180;56766;52.260;20.746;2023-08-01T05:17:36;99275.40;;;21.58
69545;BMP180;56766;52.260;20.746;2023-08-01T05:20:03;99277.00;;;21.50
69545;BMP180;56766;52.260;20.746;2023-08-01T05:22:30;99276.00;;;21.50
69545;BMP180;56766;52.260;20.746;2023-08-01T05:24:57;99274.40;;;21.40
69545;BMP180;56766;52.260;20.746;2023-08-01T05:27:24;99270.20;;;21.40
69545;BMP180;56766;52.260;20.746;2023-08-01T05:29:51;99273.20;;;21.40
69545;BMP180;56766;52.260;20.746;2023-08-01T05:32:17;99269.60;;;21.40
69545;BMP180;56766;52.260;20.746;2023-08-01T05:34:44;99266.80;;;21.50
69545;BMP180;56766;52.260;20.746;2023-08-01T05:37:11;99261.40;;;21.60
69545;BMP180;56766;52.260;20.746;2023-08-01T05:39:39;99257.60;;;21.70
69545;BMP180;56766;52.260;20.746;2023-08-01T05:42:07;99256.60;;;21.86
69545;BMP180;56766;52.260;20.746;2023-08-01T05:44:37;99256.40;;;22.00
69545;BMP180;56766;52.260;20.746;2023-08-01T05:47:04;99254.00;;;22.20
69545;BMP180;56766;52.260;20.746;2023-08-01T05:49:30;99251.60;;;22.34
69545;BMP180;56766;52.260;20.746;2023-08-01T05:51:57;99256.00;;;22.40
69545;BMP180;56766;52.260;20.746;2023-08-01T05:54:24;99256.40;;;22.50
69545;BMP180;56766;52.260;20.746;2023-08-01T05:56:50;99256.00;;;22.50
69545;BMP180;56766;52.260;20.746;2023-08-01T05:59:17;99252.00;;;22.50
69545;BMP180;56766;52.260;20.746;2023-08-01T06:01:44;99253.80;;;22.50
69545;BMP180;56766;52.260;20.746;2023-08-01T06:04:11;99250.20;;;22.50
69545;BMP180;56766;52.260;20.746;2023-08-01T06:06:38;99250.00;;;22.50
69545;BMP180;56766;52.260;20.746;2023-08-01T06:09:04;99247.40;;;22.60
69545;BMP180;56766;52.260;20.746;2023-08-01T06:11:31;99245.80;;;22.70
69545;BMP180;56766;52.260;20.746;2023-08-01T06:14:00;99244.80;;;22.80
69545;BMP180;56766;52.260;20.746;2023-08-01T06:16:27;99243.00;;;22.90
69545;BMP180;56766;52.260;20.746;2023-08-01T06:18:54;99240.60;;;23.00
69545;BMP180;56766;52.260;20.746;2023-08-01T06:21:20;99242.20;;;23.00
69545;BMP180;56766;52.260;20.746;2023-08-01T06:23:47;99238.20;;;23.00
69545;BMP180;56766;52.260;20.746;2023-08-01T06:26:14;99233.20;;;23.00
69545;BMP180;56766;52.260;20.746;2023-08-01T06:28:42;99226.40;;;23.00
69545;BMP180;56766;52.260;20.746;2023-08-01T06:31:08;99231.40;;;23.10
69545;BMP180;56766;52.260;20.746;2023-08-01T06:33:35;99228.20;;;23.24
69545;BMP180;56766;52.260;20.746;2023-08-01T06:36:02;99229.40;;;23.30
69545;BMP180;56766;52.260;20.746;2023-08-01T06:38:29;99230.20;;;23.38
69545;BMP180;56766;52.260;20.746;2023-08-01T06:40:56;99221.80;;;23.48
69545;BMP180;56766;52.260;20.746;2023-08-01T06:43:22;99221.80;;;23.60
69545;BMP180;56766;52.260;20.746;2023-08-01T06:45:51;99219.60;;;23.70
69545;BMP180;56766;52.260;20.746;2023-08-01T06:48:17;99220.40;;;23.90
69545;BMP180;56766;52.260;20.746;2023-08-01T06:50:44;99217.80;;;24.10
69545;BMP180;56766;52.260;20.746;2023-08-01T06:53:11;99210.00;;;24.30
69545;BMP180;56766;52.260;20.746;2023-08-01T06:55:38;99203.60;;;24.50
69545;BMP180;56766;52.260;20.746;2023-08-01T06:58:06;99200.40;;;24.70
69545;BMP180;56766;52.260;20.746;2023-08-01T07:00:33;99201.60;;;24.90
69545;BMP180;56766;52.260;20.746;2023-08-01T07:02:59;99200.40;;;25.04
69545;BMP180;56766;52.260;20.746;2023-08-01T07:05:26;99198.20;;;25.20
69545;BMP180;56766;52.260;20.746;2023-08-01T07:07:53;99195.40;;;25.30
69545;BMP180;56766;52.260;20.746;2023-08-01T07:10:19;99193.20;;;25.40
69545;BMP180;56766;52.260;20.746;2023-08-01T07:12:46;99193.80;;;25.50
69545;BMP180;56766;52.260;20.746;2023-08-01T07:15:14;99194.20;;;25.60
69545;BMP180;56766;52.260;20.746;2023-08-01T07:17:40;99189.20;;;25.80
69545;BMP180;56766;52.260;20.746;2023-08-01T07:20:08;99188.20;;;26.00
69545;BMP180;56766;52.260;20.746;2023-08-01T07:22:34;99185.40;;;26.24
69545;BMP180;56766;52.260;20.746;2023-08-01T07:25:01;99180.00;;;26.50
69545;BMP180;56766;52.260;20.746;2023-08-01T07:27:28;99183.40;;;26.70
69545;BMP180;56766;52.260;20.746;2023-08-01T07:29:55;99179.20;;;26.90
69545;BMP180;56766;52.260;20.746;2023-08-01T07:32:22;99179.20;;;27.00
69545;BMP180;56766;52.260;20.746;2023-08-01T07:34:48;99176.80;;;27.10
69545;BMP180;56766;52.260;20.746;2023-08-01T07:37:15;99172.40;;;27.20
69545;BMP180;56766;52.260;20.746;2023-08-01T07:39:42;99169.60;;;27.10
69545;BMP180;56766;52.260;20.746;2023-08-01T07:42:08;99171.80;;;27.08
69545;BMP180;56766;52.260;20.746;2023-08-01T07:44:35;99167.40;;;27.00
69545;BMP180;56766;52.260;20.746;2023-08-01T07:47:02;99167.20;;;26.90
69545;BMP180;56766;52.260;20.746;2023-08-01T07:49:29;99167.40;;;26.80
69545;BMP180;56766;52.260;20.746;2023-08-01T07:51:55;99163.20;;;26.70
69545;BMP180;56766;52.260;20.746;2023-08-01T07:54:24;99157.80;;;26.76
69545;BMP180;56766;52.260;20.746;2023-08-01T07:56:51;99163.80;;;26.70
69545;BMP180;56766;52.260;20.746;2023-08-01T07:59:21;99159.40;;;26.54
69545;BMP180;56766;52.260;20.746;2023-08-01T08:01:48;99164.60;;;26.30
69545;BMP180;56766;52.260;20.746;2023-08-01T08:04:16;99161.20;;;26.20
69545;BMP180;56766;52.260;20.746;2023-08-01T08:06:46;99162.60;;;26.20
69545;BMP180;56766;52.260;20.746;2023-08-01T08:09:14;99156.60;;;26.28
69545;BMP180;56766;52.260;20.746;2023-08-01T08:11:42;99159.80;;;26.30
69545;BMP180;56766;52.260;20.746;2023-08-01T08:14:09;99156.80;;;26.28
69545;BMP180;56766;52.260;20.746;2023-08-01T08:16:41;99155.00;;;26.30
69545;BMP180;56766;52.260;20.746;2023-08-01T08:19:09;99152.00;;;26.30
69545;BMP180;56766;52.260;20.746;2023-08-01T08:21:37;99150.40;;;26.20
69545;BMP180;56766;52.260;20.746;2023-08-01T08:24:04;99150.60;;;26.20
69545;BMP180;56766;52.260;20.746;2023-08-01T08:26:32;99154.60;;;26.10
69545;BMP180;56766;52.260;20.746;2023-08-01T08:29:04;99149.60;;;26.00
69545;BMP180;56766;52.260;20.746;2023-08-01T08:31:33;99153.20;;;25.90
69545;BMP180;56766;52.260;20.746;2023-08-01T08:34:00;99148.00;;;25.80
69545;BMP180;56766;52.260;20.746;2023-08-01T08:36:27;99152.80;;;25.72
69545;BMP180;56766;52.260;20.746;2023-08-01T08:38:57;99156.20;;;25.60
69545;BMP180;56766;52.260;20.746;2023-08-01T08:41:27;99161.60;;;25.50
69545;BMP180;56766;52.260;20.746;2023-08-01T08:43:57;99155.60;;;25.40
69545;BMP180;56766;52.260;20.746;2023-08-01T08:46:29;99154.80;;;25.30
69545;BMP180;56766;52.260;20.746;2023-08-01T08:48:57;99154.60;;;25.30
69545;BMP180;56766;52.260;20.746;2023-08-01T08:51:28;99153.40;;;25.40
69545;BMP180;56766;52.260;20.746;2023-08-01T08:53:56;99151.60;;;25.50
69545;BMP180;56766;52.260;20.746;2023-08-01T08:56:23;99150.40;;;25.70
69545;BMP180;56766;52.260;20.746;2023-08-01T08:58:51;99146.40;;;25.90
69545;BMP180;56766;52.260;20.746;2023-08-01T09:01:19;99142.80;;;26.12
69545;BMP180;56766;52.260;20.746;2023-08-01T09:03:48;99135.60;;;26.44
69545;BMP180;56766;52.260;20.746;2023-08-01T09:06:18;99128.80;;;26.70
69545;BMP180;56766;52.260;20.746;2023-08-01T09:09:03;99131.00;;;27.00
69545;BMP180;56766;52.260;20.746;2023-08-01T09:11:52;99126.40;;;27.30
69545;BMP180;56766;52.260;20.746;2023-08-01T09:14:19;99125.60;;;27.54
69545;BMP180;56766;52.260;20.746;2023-08-01T09:16:47;99126.00;;;27.70
69545;BMP180;56766;52.260;20.746;2023-08-01T09:19:19;99121.20;;;27.86
69545;BMP180;56766;52.260;20.746;2023-08-01T09:21:47;99118.00;;;28.00
69545;BMP180;56766;52.260;20.746;2023-08-01T09:24:17;99115.00;;;28.10
69545;BMP180;56766;52.260;20.746;2023-08-01T09:26:48;99115.00;;;28.10
69545;BMP180;56766;52.260;20.746;2023-08-01T09:29:20;99112.80;;;28.10
69545;BMP180;56766;52.260;20.746;2023-08-01T09:31:47;99117.00;;;28.20
69545;BMP180;56766;52.260;20.746;2023-08-01T09:34:22;99114.60;;;28.30
69545;BMP180;56766;52.260;20.746;2023-08-01T09:36:51;99118.60;;;28.48
69545;BMP180;56766;52.260;20.746;2023-08-01T09:39:20;99118.60;;;28.60
69545;BMP180;56766;52.260;20.746;2023-08-01T09:42:02;99112.40;;;28.68
69545;BMP180;56766;52.260;20.746;2023-08-01T09:44:30;99118.20;;;28.58
69545;BMP180;56766;52.260;20.746;2023-08-01T09:47:03;99118.20;;;28.50
69545;BMP180;56766;52.260;20.746;2023-08-01T09:49:31;99113.80;;;28.40
69545;BMP180;56766;52.260;20.746;2023-08-01T09:51:59;99109.80;;;28.22
69545;BMP180;56766;52.260;20.746;2023-08-01T09:54:27;99109.40;;;28.12
69545;BMP180;56766;52.260;20.746;2023-08-01T09:56:55;99112.80;;;28.00
69545;BMP180;56766;52.260;20.746;2023-08-01T09:59:26;99114.60;;;27.88
69545;BMP180;56766;52.260;20.746;2023-08-01T10:01:55;99117.80;;;27.70
69545;BMP180;56766;52.260;20.746;2023-08-01T10:04:30;99122.00;;;27.42
69545;BMP180;56766;52.260;20.746;2023-08-01T10:07:07;99128.20;;;27.18
69545;BMP180;56766;52.260;20.746;2023-08-01T10:09:36;99129.20;;;26.90
69545;BMP180;56766;52.260;20.746;2023-08-01T10:12:05;99133.80;;;26.70
69545;BMP180;56766;52.260;20.746;2023-08-01T10:14:32;99133.40;;;26.54
69545;BMP180;56766;52.260;20.746;2023-08-01T10:17:02;99133.60;;;26.38
69545;BMP180;56766;52.260;20.746;2023-08-01T10:19:32;99135.00;;;26.06
69545;BMP180;56766;52.260;20.746;2023-08-01T10:22:06;99135.80;;;25.80
69545;BMP180;56766;52.260;20.746;2023-08-01T10:24:35;99138.60;;;25.56
69545;BMP180;56766;52.260;20.746;2023-08-01T10:27:12;99137.40;;;25.30
69545;BMP180;56766;52.260;20.746;2023-08-01T10:29:42;99134.40;;;25.04
69545;BMP180;56766;52.260;20.746;2023-08-01T10:32:10;99137.40;;;24.90
69545;BMP180;56766;52.260;20.746;2023-08-01T10:34:37;99136.20;;;24.80
69545;BMP180;56766;52.260;20.746;2023-08-01T10:37:04;99139.80;;;24.80
69545;BMP180;56766;52.260;20.746;2023-08-01T10:39:31;99134.20;;;24.72
69545;BMP180;56766;52.260;20.746;2023-08-01T10:42:01;99137.80;;;24.74
69545;BMP180;56766;52.260;20.746;2023-08-01T10:44:28;99138.00;;;24.74
69545;BMP180;56766;52.260;20.746;2023-08-01T10:47:04;99139.00;;;24.80
69545;BMP180;56766;52.260;20.746;2023-08-01T10:49:41;99138.00;;;24.80
69545;BMP180;56766;52.260;20.746;2023-08-01T10:52:24;99133.40;;;24.80
69545;BMP180;56766;52.260;20.746;2023-08-01T10:55:03;99132.40;;;24.74
69545;BMP180;56766;52.260;20.746;2023-08-01T10:57:33;99130.00;;;24.76
69545;BMP180;56766;52.260;20.746;2023-08-01T11:00:01;99135.60;;;24.80
69545;BMP180;56766;52.260;20.746;2023-08-01T11:02:30;99126.60;;;24.80
69545;BMP180;56766;52.260;20.746;2023-08-01T11:05:00;99124.60;;;24.82
69545;BMP180;56766;52.260;20.746;2023-08-01T11:07:27;99126.20;;;25.00
69545;BMP180;56766;52.260;20.746;2023-08-01T11:10:12;99123.80;;;25.20
69545;BMP180;56766;52.260;20.746;2023-08-01T11:12:42;99118.80;;;25.46
69545;BMP180;56766;52.260;20.746;2023-08-01T11:15:14;99116.20;;;25.70
69545;BMP180;56766;52.260;20.746;2023-08-01T11:17:47;99116.80;;;25.90
69545;BMP180;56766;52.260;20.746;2023-08-01T11:20:14;99114.40;;;26.00
69545;BMP180;56766;52.260;20.746;2023-08-01T11:22:59;99110.60;;;26.10
69545;BMP180;56766;52.260;20.746;2023-08-01T11:25:37;99108.60;;;26.10
69545;BMP180;56766;52.260;20.746;2023-08-01T11:28:16;99105.60;;;26.10
69545;BMP180;56766;52.260;20.746;2023-08-01T11:30:43;99104.40;;;26.10
69545;BMP180;56766;52.260;20.746;2023-08-01T11:33:19;99106.80;;;26.20
69545;BMP180;56766;52.260;20.746;2023-08-01T11:35:54;99100.60;;;26.28
69545;BMP180;56766;52.260;20.746;2023-08-01T11:38:29;99096.20;;;26.30
69545;BMP180;56766;52.260;20.746;2023-08-01T11:41:00;99095.20;;;26.40
69545;BMP180;56766;52.260;20.746;2023-08-01T11:43:41;99087.00;;;26.50
69545;BMP180;56766;52.260;20.746;2023-08-01T11:46:09;99084.20;;;26.52
69545;BMP180;56766;52.260;20.746;2023-08-01T11:48:38;99079.60;;;26.60
69545;BMP180;56766;52.260;20.746;2023-08-01T11:51:05;99079.00;;;26.70
69545;BMP180;56766;52.260;20.746;2023-08-01T11:53:32;99075.00;;;26.80
69545;BMP180;56766;52.260;20.746;2023-08-01T11:56:07;99071.60;;;26.80
69545;BMP180;56766;52.260;20.746;2023-08-01T11:58:36;99057.20;;;26.70
69545;BMP180;56766;52.260;20.746;2023-08-01T12:01:13;99054.40;;;26.70
69545;BMP180;56766;52.260;20.746;2023-08-01T12:03:49;99053.80;;;26.70
69545;BMP180;56766;52.260;20.746;2023-08-01T12:06:20;99046.20;;;26.70
69545;BMP180;56766;52.260;20.746;2023-08-01T12:08:51;99044.80;;;26.70
69545;BMP180;56766;52.260;20.746;2023-08-01T12:11:27;99030.20;;;26.70
69545;BMP180;56766;52.260;20.746;2023-08-01T12:14:10;99028.20;;;26.50
69545;BMP180;56766;52.260;20.746;2023-08-01T12:16:44;99032.40;;;26.30
69545;BMP180;56766;52.260;20.746;2023-08-01T12:19:21;99034.60;;;26.30
69545;BMP180;56766;52.260;20.746;2023-08-01T12:21:52;99029.20;;;26.20
69545;BMP180;56766;52.260;20.746;2023-08-01T12:24:19;99025.20;;;26.38
69545;BMP180;56766;52.260;20.746;2023-08-01T12:26:46;99024.40;;;26.40
69545;BMP180;56766;52.260;20.746;2023-08-01T12:29:12;99028.80;;;26.30
69545;BMP180;56766;52.260;20.746;2023-08-01T12:31:39;99027.20;;;26.30
69545;BMP180;56766;52.260;20.746;2023-08-01T12:34:06;99020.40;;;26.20
69545;BMP180;56766;52.260;20.746;2023-08-01T12:36:33;99015.80;;;26.10
69545;BMP180;56766;52.260;20.746;2023-08-01T12:39:00;99013.40;;;26.00
69545;BMP180;56766;52.260;20.746;2023-08-01T12:41:27;99010.80;;;25.90
69545;BMP180;56766;52.260;20.746;2023-08-01T12:43:59;99007.80;;;25.90
69545;BMP180;56766;52.260;20.746;2023-08-01T12:46:28;99008.60;;;25.90
69545;BMP180;56766;52.260;20.746;2023-08-01T12:48:56;99008.00;;;25.90
69545;BMP180;56766;52.260;20.746;2023-08-01T12:51:23;99008.00;;;25.90
69545;BMP180;56766;52.260;20.746;2023-08-01T12:53:50;99003.40;;;25.90
69545;BMP180;56766;52.260;20.746;2023-08-01T12:56:19;99001.20;;;25.90
69545;BMP180;56766;52.260;20.746;2023-08-01T12:58:46;99001.00;;;25.90
69545;BMP180;56766;52.260;20.746;2023-08-01T13:01:13;99000.00;;;26.00
69545;BMP180;56766;52.260;20.746;2023-08-01T13:03:40;98989.40;;;26.00
69545;BMP180;56766;52.260;20.746;2023-08-01T13:06:11;98989.20;;;26.00
69545;BMP180;56766;52.260;20.746;2023-08-01T13:08:39;98993.40;;;26.10
69545;BMP180;56766;52.260;20.746;2023-08-01T13:11:14;98985.80;;;26.20
69545;BMP180;56766;52.260;20.746;2023-08-01T13:13:44;98992.40;;;26.30
69545;BMP180;56766;52.260;20.746;2023-08-01T13:16:12;98992.20;;;26.40
69545;BMP180;56766;52.260;20.746;2023-08-01T13:18:40;98986.20;;;26.60
69545;BMP180;56766;52.260;20.746;2023-08-01T13:21:13;98985.80;;;26.70
69545;BMP180;56766;52.260;20.746;2023-08-01T13:23:42;98980.20;;;26.80
69545;BMP180;56766;52.260;20.746;2023-08-01T13:26:11;98980.80;;;26.80
69545;BMP180;56766;52.260;20.746;2023-08-01T13:28:38;98976.00;;;26.70
69545;BMP180;56766;52.260;20.746;2023-08-01T13:31:05;98977.40;;;26.50
69545;BMP180;56766;52.260;20.746;2023-08-01T13:33:32;98977.80;;;26.40
69545;BMP180;56766;52.260;20.746;2023-08-01T13:36:00;98974.60;;;26.28
69545;BMP180;56766;52.260;20.746;2023-08-01T13:38:29;98969.00;;;26.00
69545;BMP180;56766;52.260;20.746;2023-08-01T13:41:01;98967.00;;;25.80
69545;BMP180;56766;52.260;20.746;2023-08-01T13:43:28;98963.60;;;25.60
69545;BMP180;56766;52.260;20.746;2023-08-01T13:45:55;98961.00;;;25.38
69545;BMP180;56766;52.260;20.746;2023-08-01T13:48:22;98961.40;;;25.30
69545;BMP180;56766;52.260;20.746;2023-08-01T13:50:49;98954.00;;;25.30
69545;BMP180;56766;52.260;20.746;2023-08-01T13:53:16;98951.80;;;25.30
69545;BMP180;56766;52.260;20.746;2023-08-01T13:55:43;98949.00;;;25.20
69545;BMP180;56766;52.260;20.746;2023-08-01T13:58:10;98949.40;;;25.06
69545;BMP180;56766;52.260;20.746;2023-08-01T14:00:37;98951.60;;;24.78
69545;BMP180;56766;52.260;20.746;2023-08-01T14:03:03;98953.00;;;24.50